createdAt,value
2018-11-01T00:00:42.150Z,98154.24
2018-11-01T00:03:12.128Z,98149.05
2018-11-01T00:05:41.991Z,98146.45
2018-11-01T00:08:11.867Z,98034.97
2018-11-01T00:10:41.849Z,98147.13
2018-11-01T00:13:11.788Z,98147.26
2018-11-01T00:15:41.640Z,98142.47
2018-11-01T00:18:11.633Z,98145.12
2018-11-01T00:20:41.643Z,98011.87
2018-11-01T00:23:11.607Z,98135.91
2018-11-01T00:25:41.450Z,98131.13
2018-11-01T00:28:11.317Z,98126.72
2018-11-01T00:30:41.238Z,98127.60
2018-11-01T00:33:11.194Z,98121.08
2018-11-01T00:35:41.042Z,98122.34
2018-11-01T00:38:10.957Z,98124.11
2018-11-01T00:40:40.925Z,98127.98
2018-11-01T00:43:10.844Z,98120.55
2018-11-01T00:45:40.680Z,98117.94
2018-11-01T00:48:10.507Z,98114.04
2018-11-01T00:50:40.440Z,98109.28
2018-11-01T00:53:10.328Z,98036.65
2018-11-01T00:55:40.203Z,98107.62
2018-11-01T00:58:10.094Z,98107.62
2018-11-01T01:00:41.024Z,98114.14
2018-11-01T01:03:10.939Z,98112.38
2018-11-01T01:08:15.831Z,98111.09
2018-11-01T01:10:45.708Z,97982.28
2018-11-01T01:13:15.673Z,98097.73
2018-11-01T01:15:45.634Z,98093.80
2018-11-01T01:18:15.485Z,98096.03
2018-11-01T01:20:45.398Z,98104.70
2018-11-01T01:23:15.312Z,98102.98
2018-11-01T01:25:45.229Z,98100.84
2018-11-01T01:28:15.165Z,98101.23
2018-11-01T01:30:45.163Z,98095.76
2018-11-01T01:33:15.140Z,98091.34
2018-11-01T01:35:44.926Z,98104.91
2018-11-01T01:38:14.820Z,98102.27
2018-11-01T01:40:44.736Z,98097.95
2018-11-01T01:43:14.704Z,98100.51
2018-11-01T01:45:44.557Z,98106.14
2018-11-01T01:48:14.492Z,98101.88
2018-11-01T01:50:44.518Z,98115.33
2018-11-01T01:53:14.441Z,98113.18
2018-11-01T01:55:44.310Z,98111.78
2018-11-01T01:58:14.233Z,98113.92
2018-11-01T02:00:44.247Z,98115.22
2018-11-01T02:03:14.265Z,98121.36
2018-11-01T02:05:44.119Z,98133.09
2018-11-01T02:08:14.026Z,98130.92
2018-11-01T02:10:43.948Z,98127.04
2018-11-01T02:13:13.968Z,98133.11
2018-11-01T02:15:43.796Z,98131.81
2018-11-01T02:18:13.723Z,98128.77
2018-11-01T02:20:43.673Z,98131.42
2018-11-01T02:23:13.590Z,98127.09
2018-11-01T02:25:43.425Z,98110.63
2018-11-01T02:28:16.724Z,98099.75
2018-11-01T02:30:47.390Z,98108.86
2018-11-01T02:33:17.457Z,98110.54
2018-11-01T02:35:47.699Z,98073.31
2018-11-01T02:38:17.587Z,98106.14
2018-11-01T02:40:47.244Z,98094.41
2018-11-01T02:43:17.014Z,98082.66
2018-11-01T02:45:47.702Z,98079.30
2018-11-01T02:48:18.364Z,98078.51
2018-11-01T02:50:48.435Z,98084.18
2018-11-01T02:53:18.224Z,97765.21
2018-11-01T02:55:47.930Z,98089.85
2018-11-01T02:58:17.972Z,98085.06
2018-11-01T03:00:49.063Z,98086.80
2018-11-01T03:03:18.874Z,98080.25
2018-11-01T03:05:48.594Z,98069.83
2018-11-01T03:08:18.342Z,97940.55
2018-11-01T03:10:48.057Z,98066.81
2018-11-01T03:13:17.881Z,98070.73
2018-11-01T03:15:48.169Z,98075.96
2018-11-01T03:18:17.872Z,98078.15
2018-11-01T03:20:47.969Z,98077.30
2018-11-01T03:23:17.756Z,98080.31
2018-11-01T03:25:47.597Z,98077.66
2018-11-01T03:28:17.488Z,98082.85
2018-11-01T03:30:47.389Z,98075.45
2018-11-01T03:33:17.230Z,98068.92
2018-11-01T03:35:47.120Z,98075.06
2018-11-01T03:38:17.114Z,98088.11
2018-11-01T03:40:46.910Z,98083.30
2018-11-01T03:43:16.829Z,98082.81
2018-11-01T03:45:46.824Z,98091.45
2018-11-01T03:48:16.679Z,97976.91
2018-11-01T03:50:46.553Z,98107.11
2018-11-01T03:53:16.493Z,98113.67
2018-11-01T03:55:46.361Z,98114.05
2018-11-01T03:58:16.275Z,98125.34
2018-11-01T04:00:46.192Z,98124.43
2018-11-01T04:03:16.017Z,98114.80
2018-11-01T04:05:45.947Z,98120.98
2018-11-01T04:08:15.830Z,98125.37
2018-11-01T04:10:45.711Z,98121.08
2018-11-01T04:13:15.576Z,98122.81
2018-11-01T04:15:45.460Z,98119.72
2018-11-01T04:18:15.304Z,98110.64
2018-11-01T04:20:45.217Z,98106.38
2018-11-01T04:23:15.151Z,98107.31
2018-11-01T04:25:44.962Z,98109.94
2018-11-01T04:28:14.859Z,98112.55
2018-11-01T04:30:44.696Z,98123.37
2018-11-01T04:33:14.637Z,98124.23
2018-11-01T04:35:44.328Z,98112.52
2018-11-01T04:38:14.232Z,98114.28
2018-11-01T04:40:44.151Z,98115.60
2018-11-01T04:43:13.861Z,98108.29
2018-11-01T04:45:43.698Z,98104.84
2018-11-01T04:48:13.519Z,98104.86
2018-11-01T04:50:43.363Z,98097.45
2018-11-01T04:53:13.225Z,98094.36
2018-11-01T04:55:43.029Z,98088.74
2018-11-01T04:58:12.824Z,98103.48
2018-11-01T05:00:42.680Z,98093.92
2018-11-01T05:03:12.556Z,98102.58
2018-11-01T05:05:42.619Z,98111.22
2018-11-01T05:08:13.103Z,98109.50
2018-11-01T05:10:43.433Z,98105.59
2018-11-01T05:13:13.905Z,98093.88
2018-11-01T05:15:43.637Z,98096.54
2018-11-01T05:18:13.347Z,98098.28
2018-11-01T05:20:43.028Z,98094.80
2018-11-01T05:23:12.734Z,98084.45
2018-11-01T05:25:42.427Z,98079.80
2018-11-01T05:28:12.118Z,98084.14
2018-11-01T05:30:41.820Z,98089.33
2018-11-01T05:33:11.515Z,98083.65
2018-11-01T05:35:41.158Z,98085.77
2018-11-01T05:38:10.936Z,98084.88
2018-11-01T05:40:40.903Z,98068.84
2018-11-01T05:43:14.717Z,98065.83
2018-11-01T05:45:44.873Z,98071.89
2018-11-01T05:48:14.583Z,98077.51
2018-11-01T05:50:44.347Z,98079.64
2018-11-01T05:53:14.519Z,98087.45
2018-11-01T05:55:45.114Z,98086.13
2018-11-01T05:58:14.866Z,98080.45
2018-11-01T06:00:44.778Z,98073.44
2018-11-01T06:03:14.493Z,98069.51
2018-11-01T06:05:44.382Z,98077.32
2018-11-01T06:08:16.661Z,98077.30
2018-11-01T06:10:46.457Z,98075.06
2018-11-01T06:13:16.326Z,98095.64
2018-11-01T06:15:46.279Z,98096.31
2018-11-01T06:18:16.126Z,98089.04
2018-11-01T06:20:46.075Z,98071.75
2018-11-01T06:23:15.942Z,98053.58
2018-11-01T06:25:45.795Z,98062.03
2018-11-01T06:28:15.733Z,98074.87
2018-11-01T06:30:45.594Z,98070.30
2018-11-01T06:33:15.367Z,98083.31
2018-11-01T06:35:47.398Z,98095.16
2018-11-01T06:38:17.219Z,98090.55
2018-11-01T06:40:47.100Z,98092.16
2018-11-01T06:43:16.936Z,98107.52
2018-11-01T06:45:46.807Z,98115.92
2018-11-01T06:48:16.624Z,98105.84
2018-11-01T06:50:46.535Z,98084.50
2018-11-01T06:53:16.384Z,98084.03
2018-11-01T06:55:46.228Z,98080.27
2018-11-01T06:58:16.091Z,98066.28
2018-11-01T07:00:46.018Z,98078.41
2018-11-01T07:03:15.914Z,98090.08
2018-11-01T07:05:45.878Z,98095.19
2018-11-01T07:08:15.674Z,98095.16
2018-11-01T07:10:45.562Z,98103.41
2018-11-01T07:13:15.511Z,98100.80
2018-11-01T07:15:45.312Z,98093.75
2018-11-01T07:18:15.187Z,98090.55
2018-11-01T07:20:45.104Z,98095.27
2018-11-01T07:23:14.983Z,98098.66
2018-11-01T07:25:44.906Z,98107.74
2018-11-01T07:28:14.788Z,98100.23
2018-11-01T07:30:44.675Z,98090.97
2018-11-01T07:33:14.561Z,98093.48
2018-11-01T07:35:44.535Z,98101.02
2018-11-01T07:38:14.363Z,98086.25
2018-11-01T07:40:44.279Z,98086.18
2018-11-01T07:43:14.201Z,98081.59
2018-11-01T07:45:44.053Z,98070.75
2018-11-01T07:48:13.902Z,98078.66
2018-11-01T07:50:43.830Z,98068.14
2018-11-01T07:53:13.730Z,98047.52
2018-11-01T07:55:43.654Z,98041.20
2018-11-01T07:58:13.513Z,98039.63
2018-11-01T08:00:43.410Z,98033.31
2018-11-01T08:03:13.285Z,98029.09
2018-11-01T08:05:43.322Z,98017.89
2018-11-01T08:08:13.109Z,98015.92
2018-11-01T08:10:42.990Z,98037.64
2018-11-01T08:13:12.848Z,98044.08
2018-11-01T08:15:42.712Z,98035.61
2018-11-01T08:18:12.617Z,98027.92
2018-11-01T08:20:42.593Z,98030.45
2018-11-01T08:23:12.398Z,98029.03
2018-11-01T08:25:42.379Z,98029.68
2018-11-01T08:28:12.178Z,98029.34
2018-11-01T08:30:42.062Z,98040.27
2018-11-01T08:33:12.000Z,97837.52
2018-11-01T08:35:42.845Z,98033.67
2018-11-01T08:38:12.797Z,98027.02
2018-11-01T08:40:42.689Z,98021.59
2018-11-01T08:43:12.587Z,98018.11
2018-11-01T08:45:42.438Z,98024.63
2018-11-01T08:48:12.432Z,98032.44
2018-11-01T08:50:42.331Z,98026.47
2018-11-01T08:53:12.239Z,98015.30
2018-11-01T08:55:43.175Z,98016.50
2018-11-01T08:58:13.003Z,98019.58
2018-11-01T09:00:42.883Z,98028.14
2018-11-01T09:03:12.805Z,98013.44
2018-11-01T09:05:42.707Z,98009.28
2018-11-01T09:08:12.648Z,98004.87
2018-11-01T09:10:42.518Z,98000.53
2018-11-01T09:13:12.492Z,97997.47
2018-11-01T09:15:42.350Z,97996.06
2018-11-01T09:18:12.220Z,97992.42
2018-11-01T09:20:42.139Z,98000.91
2018-11-01T09:23:12.067Z,98001.11
2018-11-01T09:25:41.971Z,98003.93
2018-11-01T09:28:11.907Z,98000.91
2018-11-01T09:30:41.869Z,97989.06
2018-11-01T09:33:11.794Z,97979.66
2018-11-01T09:35:41.675Z,97978.44
2018-11-01T09:38:11.543Z,97972.36
2018-11-01T09:40:41.446Z,97984.27
2018-11-01T09:43:11.262Z,97977.19
2018-11-01T09:45:41.053Z,97970.39
2018-11-01T09:48:10.979Z,97977.02
2018-11-01T09:50:40.827Z,97974.89
2018-11-01T09:53:10.773Z,97971.02
2018-11-01T09:55:40.829Z,97970.22
2018-11-01T09:58:10.584Z,97966.06
2018-11-01T10:00:40.470Z,97968.17
2018-11-01T10:03:10.391Z,97963.80
2018-11-01T10:05:40.224Z,97948.06
2018-11-01T10:08:10.130Z,97935.71
2018-11-01T10:10:40.566Z,97933.79
2018-11-01T10:13:10.434Z,97940.16
2018-11-01T10:15:40.523Z,97939.38
2018-11-01T10:18:10.574Z,97948.76
2018-11-01T10:20:40.035Z,97951.09
2018-11-01T10:23:10.045Z,97946.05
2018-11-01T10:25:39.911Z,97826.14
2018-11-01T10:28:09.832Z,97930.61
2018-11-01T10:30:39.759Z,97932.72
2018-11-01T10:33:09.649Z,97942.16
2018-11-01T10:35:39.419Z,97948.11
2018-11-01T10:38:09.400Z,97929.51
2018-11-01T10:40:39.363Z,97937.75
2018-11-01T10:43:09.227Z,97930.56
2018-11-01T10:45:39.144Z,97926.46
2018-11-01T10:48:09.142Z,97929.71
2018-11-01T10:50:39.072Z,97926.25
2018-11-01T10:53:09.013Z,97934.13
2018-11-01T10:55:38.852Z,97927.20
2018-11-01T10:58:08.746Z,97933.08
2018-11-01T11:00:43.940Z,97931.89
2018-11-01T11:03:13.780Z,97918.18
2018-11-01T11:05:43.735Z,97905.16
2018-11-01T11:08:13.717Z,97900.73
2018-11-01T11:10:43.602Z,97889.39
2018-11-01T11:13:13.500Z,97884.11
2018-11-01T11:15:43.470Z,97887.92
2018-11-01T11:18:13.338Z,97884.48
2018-11-01T11:20:43.472Z,97883.28
2018-11-01T11:23:13.131Z,97879.05
2018-11-01T11:25:43.035Z,97873.22
2018-11-01T11:28:12.890Z,97883.13
2018-11-01T11:30:42.876Z,97895.20
2018-11-01T11:33:12.798Z,97890.35
2018-11-01T11:35:43.727Z,97892.67
2018-11-01T11:38:13.607Z,97890.97
2018-11-01T11:40:43.539Z,97881.96
2018-11-01T11:43:13.459Z,97882.77
2018-11-01T11:45:43.324Z,97871.62
2018-11-01T11:48:13.335Z,97871.16
2018-11-01T11:50:43.259Z,97875.59
2018-11-01T11:53:13.130Z,97872.87
2018-11-01T11:55:43.096Z,97852.28
2018-11-01T11:58:13.014Z,97856.63
2018-11-01T12:00:42.897Z,97864.23
2018-11-01T12:03:12.845Z,97855.42
2018-11-01T12:05:43.753Z,97856.08
2018-11-01T12:08:13.661Z,97843.99
2018-11-01T12:10:43.519Z,97834.32
2018-11-01T12:13:13.444Z,97826.39
2018-11-01T12:15:43.366Z,97819.78
2018-11-01T12:18:13.295Z,97822.43
2018-11-01T12:20:43.292Z,97818.47
2018-11-01T12:23:13.217Z,97833.59
2018-11-01T12:25:43.194Z,97808.29
2018-11-01T12:28:13.153Z,97820.19
2018-11-01T12:30:43.070Z,97823.02
2018-11-01T12:33:13.015Z,97816.80
2018-11-01T12:35:43.975Z,97815.29
2018-11-01T12:38:13.859Z,97821.70
2018-11-01T12:40:43.830Z,97821.03
2018-11-01T12:43:13.804Z,97813.97
2018-11-01T12:45:43.657Z,97818.45
2018-11-01T12:48:13.550Z,97819.77
2018-11-01T12:50:43.564Z,97815.48
2018-11-01T12:53:13.460Z,97821.75
2018-11-01T12:55:43.402Z,97822.41
2018-11-01T12:58:13.350Z,97832.19
2018-11-01T13:00:43.310Z,97821.19
2018-11-01T13:03:13.311Z,97815.98
2018-11-01T13:05:43.288Z,97823.12
2018-11-01T13:08:13.576Z,97816.09
2018-11-01T13:10:43.691Z,97824.44
2018-11-01T13:13:13.621Z,97821.33
2018-11-01T13:15:43.503Z,97827.08
2018-11-01T13:18:13.776Z,97830.76
2018-11-01T13:20:43.497Z,97842.36
2018-11-01T13:23:13.442Z,97838.73
2018-11-01T13:25:43.351Z,97851.21
2018-11-01T13:28:13.359Z,97850.08
2018-11-01T13:30:43.331Z,97847.62
2018-11-01T13:33:13.363Z,97859.42
2018-11-01T13:35:43.268Z,97856.53
2018-11-01T13:38:13.120Z,97831.79
2018-11-01T13:40:43.392Z,97830.40
2018-11-01T13:43:12.911Z,97818.06
2018-11-01T13:45:42.696Z,97821.13
2018-11-01T13:48:12.759Z,97829.94
2018-11-01T13:50:42.526Z,97847.97
2018-11-01T13:53:12.391Z,97839.13
2018-11-01T13:55:42.243Z,97841.80
2018-11-01T13:58:12.223Z,97860.35
2018-11-01T14:00:42.055Z,97857.00
2018-11-01T14:03:11.979Z,97792.31
2018-11-01T14:05:41.848Z,97867.59
2018-11-01T14:08:11.718Z,97861.10
2018-11-01T14:10:41.551Z,97861.70
2018-11-01T14:13:11.548Z,97866.16
2018-11-01T14:15:41.398Z,97862.16
2018-11-01T14:18:11.174Z,97849.69
2018-11-01T14:20:41.070Z,97834.16
2018-11-01T14:23:10.891Z,97841.88
2018-11-01T14:25:40.768Z,97841.67
2018-11-01T14:28:10.643Z,97845.59
2018-11-01T14:30:40.504Z,97846.27
2018-11-01T14:33:10.394Z,97848.20
2018-11-01T14:35:40.200Z,97846.59
2018-11-01T14:38:10.124Z,97826.73
2018-11-01T14:40:40.031Z,97826.38
2018-11-01T14:43:09.972Z,97828.30
2018-11-01T14:45:39.791Z,97827.69
2018-11-01T14:48:09.609Z,97828.39
2018-11-01T14:50:39.811Z,97823.75
2018-11-01T14:53:10.210Z,97833.91
2018-11-01T14:55:40.813Z,97842.59
2018-11-01T14:58:11.711Z,97836.37
2018-11-01T15:00:39.575Z,97822.27
2018-11-01T15:03:09.486Z,97823.19
2018-11-01T15:05:39.268Z,97827.47
2018-11-01T15:08:09.081Z,97837.09
2018-11-01T15:10:39.035Z,97847.63
2018-11-01T15:13:09.063Z,97850.41
2018-11-01T15:15:38.816Z,97851.36
2018-11-01T15:18:08.747Z,97845.52
2018-11-01T15:20:38.812Z,97833.61
2018-11-01T15:23:08.684Z,97844.16
2018-11-01T15:25:38.559Z,97836.69
2018-11-01T15:28:08.538Z,97844.53
2018-11-01T15:30:38.371Z,97840.88
2018-11-01T15:33:08.266Z,97840.64
2018-11-01T15:35:38.115Z,97858.38
2018-11-01T15:38:07.972Z,97854.19
2018-11-01T15:40:37.882Z,97845.89
2018-11-01T15:43:07.817Z,97848.34
2018-11-01T15:45:37.663Z,97861.64
2018-11-01T15:48:07.706Z,97881.14
2018-11-01T15:50:37.556Z,97882.55
2018-11-01T15:53:07.468Z,97888.58
2018-11-01T15:55:37.282Z,97877.66
2018-11-01T15:58:07.304Z,97876.55
2018-11-01T16:00:37.118Z,97876.80
2018-11-01T16:03:07.072Z,97877.86
2018-11-01T16:05:36.924Z,97873.23
2018-11-01T16:08:06.945Z,97880.91
2018-11-01T16:10:36.935Z,97881.06
2018-11-01T16:13:06.956Z,97881.55
2018-11-01T16:15:36.850Z,97889.61
2018-11-01T16:18:07.118Z,97891.41
2018-11-01T16:20:37.065Z,97895.14
2018-11-01T16:23:07.077Z,97890.02
2018-11-01T16:25:36.943Z,97891.02
2018-11-01T16:28:06.876Z,97892.05
2018-11-01T16:30:36.829Z,97890.76
2018-11-01T16:33:06.811Z,97889.64
2018-11-01T16:35:36.600Z,97884.58
2018-11-01T16:38:06.643Z,97878.58
2018-11-01T16:40:36.604Z,97881.29
2018-11-01T16:43:06.675Z,97874.72
2018-11-01T16:45:36.596Z,97876.63
2018-11-01T16:48:06.665Z,97885.08
2018-11-01T16:50:36.622Z,97881.20
2018-11-01T16:53:06.833Z,97880.76
2018-11-01T16:55:36.719Z,97874.64
2018-11-01T16:58:06.747Z,97860.09
2018-11-01T17:00:36.683Z,97855.08
2018-11-01T17:03:06.642Z,97867.90
2018-11-01T17:05:36.447Z,97850.02
2018-11-01T17:08:06.527Z,97843.39
2018-11-01T17:10:36.445Z,97834.28
2018-11-01T17:13:06.498Z,97824.22
2018-11-01T17:15:36.428Z,97825.91
2018-11-01T17:18:06.548Z,97819.50
2018-11-01T17:20:36.525Z,97804.05
2018-11-01T17:23:06.450Z,97821.02
2018-11-01T17:25:36.336Z,97841.14
2018-11-01T17:28:06.249Z,97835.59
2018-11-01T17:30:36.243Z,97834.83
2018-11-01T17:33:06.681Z,97843.36
2018-11-01T17:35:36.547Z,97838.82
2018-11-01T17:38:06.576Z,97835.84
2018-11-01T17:40:36.543Z,97847.01
2018-11-01T17:43:06.556Z,97856.40
2018-11-01T17:45:36.469Z,97847.84
2018-11-01T17:48:06.540Z,97845.75
2018-11-01T17:50:36.506Z,97849.88
2018-11-01T17:53:06.518Z,97854.35
2018-11-01T17:55:36.404Z,97849.61
2018-11-01T17:58:06.497Z,97843.16
2018-11-01T18:00:36.531Z,97840.55
2018-11-01T18:03:06.571Z,97840.98
2018-11-01T18:05:37.568Z,97841.78
2018-11-01T18:08:07.636Z,97841.38
2018-11-01T18:10:37.781Z,97843.10
2018-11-01T18:13:07.747Z,97844.81
2018-11-01T18:15:37.951Z,97839.05
2018-11-01T18:18:07.950Z,97851.84
2018-11-01T18:20:38.176Z,97854.06
2018-11-01T18:23:08.157Z,97850.88
2018-11-01T18:25:43.250Z,97808.59
2018-11-01T18:28:13.399Z,97841.41
2018-11-01T18:30:43.672Z,97845.53
2018-11-01T18:33:13.956Z,97853.06
2018-11-01T18:35:43.836Z,97856.66
2018-11-01T18:38:13.943Z,97859.75
2018-11-01T18:40:44.281Z,97658.45
2018-11-01T18:43:14.551Z,97862.70
2018-11-01T18:45:44.783Z,97869.33
2018-11-01T18:48:15.074Z,97865.79
2018-11-01T18:50:45.315Z,97860.59
2018-11-01T18:53:17.214Z,97861.45
2018-11-01T18:55:47.483Z,97867.55
2018-11-01T18:58:17.824Z,97875.98
2018-11-01T19:00:48.336Z,97883.81
2018-11-01T19:03:22.612Z,97875.71
2018-11-01T19:05:52.871Z,97887.30
2018-11-01T19:08:23.157Z,97884.07
2018-11-01T19:10:53.846Z,97892.28
2018-11-01T19:13:24.521Z,97897.83
2018-11-01T19:15:54.712Z,97897.48
2018-11-01T19:18:25.021Z,97891.89
2018-11-01T19:20:56.219Z,97894.66
2018-11-01T19:23:26.271Z,97893.52
2018-11-01T19:25:56.501Z,97892.89
2018-11-01T19:28:26.666Z,97887.41
2018-11-01T19:30:56.714Z,97877.48
2018-11-01T19:33:26.963Z,97883.34
2018-11-01T19:35:57.250Z,97888.23
2018-11-01T19:38:28.118Z,97887.38
2018-11-01T19:40:58.168Z,97892.58
2018-11-01T19:43:28.389Z,97890.81
2018-11-01T19:45:58.573Z,97890.70
2018-11-01T19:48:28.546Z,97895.95
2018-11-01T19:50:58.606Z,97889.45
2018-11-01T19:53:28.735Z,97898.23
2018-11-01T19:55:58.900Z,97895.31
2018-11-01T19:58:28.819Z,97895.13
2018-11-01T20:00:58.930Z,97891.14
2018-11-01T20:03:33.732Z,97898.27
2018-11-01T20:06:04.311Z,97891.80
2018-11-01T20:08:34.562Z,97896.61
2018-11-01T20:11:04.680Z,97905.33
2018-11-01T20:13:34.523Z,97910.02
2018-11-01T20:16:04.838Z,97905.47
2018-11-01T20:18:35.155Z,97911.92
2018-11-01T20:21:05.244Z,97910.90
2018-11-01T20:23:35.207Z,97907.75
2018-11-01T20:26:05.620Z,97908.56
2018-11-01T20:28:35.779Z,97921.19
2018-11-01T20:31:05.948Z,97918.49
2018-11-01T20:33:36.031Z,97921.92
2018-11-01T20:36:06.352Z,97922.28
2018-11-01T20:38:36.558Z,97924.38
2018-11-01T20:41:06.907Z,97925.63
2018-11-01T20:43:36.822Z,97919.09
2018-11-01T20:46:07.303Z,97911.66
2018-11-01T20:48:37.624Z,97912.57
2018-11-01T20:51:07.640Z,97919.59
2018-11-01T20:53:37.553Z,97922.57
2018-11-01T20:56:07.876Z,97923.00
2018-11-01T20:58:38.015Z,97926.05
2018-11-01T21:01:08.091Z,97933.05
2018-11-01T21:03:37.890Z,97821.87
2018-11-01T21:06:07.835Z,97934.59
2018-11-01T21:08:37.867Z,97939.04
2018-11-01T21:11:07.918Z,97942.23
2018-11-01T21:13:37.643Z,97944.14
2018-11-01T21:16:07.726Z,97927.20
2018-11-01T21:18:38.591Z,97920.91
2018-11-01T21:21:08.545Z,97908.23
2018-11-01T21:23:38.323Z,97860.62
2018-11-01T21:26:08.194Z,97922.28
2018-11-01T21:28:38.193Z,97919.42
2018-11-01T21:31:08.431Z,97933.55
2018-11-01T21:33:38.315Z,97934.06
2018-11-01T21:36:08.410Z,97940.78
2018-11-01T21:38:38.267Z,97946.64
2018-11-01T21:41:08.143Z,97948.52
2018-11-01T21:43:37.980Z,97950.78
2018-11-01T21:46:07.857Z,97947.34
2018-11-01T21:48:37.811Z,97949.08
2018-11-01T21:51:07.802Z,97954.38
2018-11-01T21:53:37.675Z,97953.55
2018-11-01T21:56:08.413Z,97966.67
2018-11-01T21:58:38.307Z,97964.09
2018-11-01T22:01:08.199Z,97965.41
2018-11-01T22:03:38.113Z,97966.73
2018-11-01T22:06:08.026Z,97966.78
2018-11-01T22:08:37.935Z,97964.05
2018-11-01T22:11:07.861Z,97960.30
2018-11-01T22:13:37.650Z,97956.92
2018-11-01T22:16:08.232Z,97953.14
2018-11-01T22:18:38.196Z,97956.25
2018-11-01T22:21:08.153Z,97954.23
2018-11-01T22:23:38.047Z,97959.52
2018-11-01T22:26:07.879Z,97951.84
2018-11-01T22:28:37.778Z,97942.81
2018-11-01T22:31:07.748Z,97952.43
2018-11-01T22:33:37.563Z,97953.02
2018-11-01T22:36:07.495Z,97955.69
2018-11-01T22:38:37.538Z,97951.31
2018-11-01T22:41:07.365Z,97949.67
2018-11-01T22:43:37.249Z,97961.91
2018-11-01T22:46:07.239Z,97965.80
2018-11-01T22:48:37.181Z,97957.58
2018-11-01T22:51:07.396Z,97954.97
2018-11-01T22:53:37.236Z,97957.22
2018-11-01T22:56:07.779Z,97956.85
2018-11-01T22:58:37.700Z,97965.58
2018-11-01T23:01:07.696Z,97973.97
2018-11-01T23:03:37.556Z,97971.39
2018-11-01T23:06:07.499Z,97971.08
2018-11-01T23:08:37.482Z,97959.37
2018-11-01T23:11:07.435Z,97955.57
2018-11-01T23:13:37.265Z,97953.81
2018-11-01T23:16:07.197Z,97951.70
2018-11-01T23:18:37.093Z,97945.67
2018-11-01T23:21:07.035Z,97940.94
2018-11-01T23:23:36.867Z,97940.70
2018-11-01T23:26:07.238Z,97934.80
2018-11-01T23:28:37.150Z,97934.06
2018-11-01T23:31:07.087Z,97930.63
2018-11-01T23:33:36.984Z,97935.00
2018-11-01T23:36:05.968Z,97928.53
2018-11-01T23:38:40.880Z,97933.40
2018-11-01T23:41:15.950Z,97939.12
2018-11-01T23:43:50.909Z,97955.30
2018-11-01T23:46:25.867Z,97957.88
2018-11-01T23:49:02.329Z,97959.23
2018-11-01T23:51:32.148Z,97948.73
2018-11-01T23:54:01.983Z,97954.52
2018-11-01T23:56:31.857Z,97960.61
2018-11-01T23:59:01.800Z,97958.81
